Davenport, IA (52802)

9:47 AM CDT on July 29, 2016 (GMT -0500)
West Central Davenport | | Change Station

Elev 704 ft 41.53 °N, 90.61 °W | Updated 46 seconds ago

Overcast
Overcast
73.0 °F
Feels Like 74 °F
N
0.0
Wind Variable Wind from NNE
Gusts 0.0 mph

Today
High -- | Low -- °F
--% Chance of Precip.
Yesterday
High -- | Low -- °F
Precip. -- in
Pressure 29.96 in
Visibility 2.5 miles
Clouds Overcast 300 ft
Heat Index 74 °F
Dew Point 66 °F
Humidity 78%
Rainfall 0.00 in
Snow Depth Not available.
5:54 AM 8:22 PM
Waning Crescent, 21% visible
SPECI KDVN 291435Z AUTO 02003KT 2 1/2SM BR OVC003 21/20 A2996 RMK AO2 T02110200
Pressure 29.96 in
Visibility 2.5 miles
Clouds Overcast 300 ft
Heat Index 74 °F
Dew Point 66 °F
Humidity 78%
Rainfall 0.00 in
Snow Depth Not available.
5:54 AM 8:22 PM
Waning Crescent, 21% visible
SPECI KDVN 291435Z AUTO 02003KT 2 1/2SM BR OVC003 21/20 A2996 RMK AO2 T02110200

10-Day Weather Forecast

Almanac

Astronomy

Jul. 29, 2016 Rise Set
Actual Time
Civil Twilight
Nautical Twilight
Astronomical Twilight
Moon
Length of Visible Light
Length of Day
Tomorrow will be .
, % of the Moon is Illuminated

Today's Extremes

State Highs State Lows

Community

WunderPhotos

Upload Photos

1,928,343 photos uploaded!

WunderBlog® & News

Nearby

Air Quality

  Air Quality AQ Index Pollutant
Not available.

Snow Depth

Station Depth Elevation

Earthquake Activity

City Distance Mag. Time & Date
Minimum magnitude displayed is 2.5.

Coastal Water Temperatures

Place Temperature

Stations

Nearby Weather Stations

Station Location Temp. Windchill Dew Point Humidity Wind Precip. Elev Updated Type
                   

Watches & Warnings

There are currently no watches in effect.